createdAt,value
2023-03-21T00:00:30.805Z,1012.15
2023-03-21T00:01:30.784Z,1012.15
2023-03-21T00:02:30.847Z,1012.17
2023-03-21T00:03:30.816Z,1012.14
2023-03-21T00:04:40.912Z,1012.14
2023-03-21T00:05:30.804Z,1012.14
2023-03-21T00:06:30.747Z,1012.13
2023-03-21T00:07:30.737Z,1012.14
2023-03-21T00:08:30.713Z,1012.14
2023-03-21T00:09:30.701Z,1012.12
2023-03-21T00:10:40.682Z,1012.12
2023-03-21T00:11:30.690Z,1012.13
2023-03-21T00:12:30.688Z,1012.11
2023-03-21T00:13:30.655Z,1012.11
2023-03-21T00:14:30.705Z,1012.10
2023-03-21T00:15:44.050Z,1012.12
2023-03-21T00:16:31.054Z,1012.08
2023-03-21T00:17:30.622Z,1012.06
2023-03-21T00:18:30.615Z,1012.06
2023-03-21T00:19:30.616Z,1012.03
2023-03-21T00:20:30.592Z,1012.05
2023-03-21T00:22:03.655Z,1012.01
2023-03-21T00:22:30.574Z,1012.04
2023-03-21T00:23:30.570Z,1012.02
2023-03-21T00:24:30.575Z,1012.03
2023-03-21T00:25:30.533Z,1012.05
2023-03-21T00:26:30.533Z,1012.04
2023-03-21T00:27:47.544Z,1012.03
2023-03-21T00:28:30.509Z,1012.04
2023-03-21T00:29:30.526Z,1012.03
2023-03-21T00:30:30.485Z,1012.02
2023-03-21T00:31:30.468Z,1011.99
2023-03-21T00:32:30.469Z,1011.99
2023-03-21T00:33:30.442Z,1012.00
2023-03-21T00:34:42.743Z,1011.97
2023-03-21T00:36:30.470Z,1011.95
2023-03-21T00:37:30.422Z,1011.95
2023-03-21T00:38:30.403Z,1011.95
2023-03-21T00:39:30.406Z,1011.96
2023-03-21T00:40:35.283Z,1011.92
2023-03-21T00:41:45.593Z,1011.92
2023-03-21T00:42:30.378Z,1011.93
2023-03-21T00:43:30.343Z,1011.91
2023-03-21T00:44:30.350Z,1011.92
2023-03-21T00:45:30.322Z,1011.91
2023-03-21T00:46:42.715Z,1011.90
2023-03-21T00:47:30.381Z,1011.89
2023-03-21T00:48:30.338Z,1011.88
2023-03-21T00:49:30.291Z,1011.87
2023-03-21T00:50:30.286Z,1011.87
2023-03-21T00:51:30.263Z,1011.88
2023-03-21T00:52:40.160Z,1011.88
2023-03-21T00:53:30.244Z,1011.87
2023-03-21T00:54:30.250Z,1011.87
2023-03-21T00:55:30.216Z,1011.87
2023-03-21T00:56:30.213Z,1011.88
2023-03-21T00:57:38.449Z,1011.88
2023-03-21T00:58:30.196Z,1011.86
2023-03-21T00:59:30.193Z,1011.86
2023-03-21T01:00:30.217Z,1011.83
2023-03-21T01:01:30.149Z,1011.83
2023-03-21T01:02:30.159Z,1011.83
2023-03-21T01:03:30.127Z,1011.84
2023-03-21T01:04:30.154Z,1011.85
2023-03-21T01:05:30.106Z,1011.84
2023-03-21T01:06:30.108Z,1011.86
2023-03-21T01:07:30.095Z,1011.86
2023-03-21T01:08:38.117Z,1011.86
2023-03-21T01:09:30.089Z,1011.86
2023-03-21T01:10:30.062Z,1011.85
2023-03-21T01:11:30.051Z,1011.84
2023-03-21T01:12:30.036Z,1011.84
2023-03-21T01:13:30.043Z,1011.83
2023-03-21T01:14:30.047Z,1011.84
2023-03-21T01:15:30.023Z,1011.82
2023-03-21T01:16:30.032Z,1011.80
2023-03-21T01:17:29.988Z,1011.81
2023-03-21T01:18:30.002Z,1011.81
2023-03-21T01:19:44.681Z,1011.80
2023-03-21T01:20:29.969Z,1011.78
2023-03-21T01:21:29.944Z,1011.78
2023-03-21T01:22:29.935Z,1011.77
2023-03-21T01:23:29.918Z,1011.78
2023-03-21T01:24:30.421Z,1011.78
2023-03-21T01:25:29.900Z,1011.78
2023-03-21T01:26:29.897Z,1011.79
2023-03-21T01:27:29.874Z,1011.79
2023-03-21T01:28:29.890Z,1011.79
2023-03-21T01:29:29.878Z,1011.79
2023-03-21T01:30:33.963Z,1011.79
2023-03-21T01:31:29.877Z,1011.80
2023-03-21T01:32:29.836Z,1011.78
2023-03-21T01:33:29.832Z,1011.78
2023-03-21T01:34:29.833Z,1011.80
2023-03-21T01:35:32.022Z,1011.77
2023-03-21T01:36:29.827Z,1011.75
2023-03-21T01:37:29.783Z,1011.76
2023-03-21T01:38:29.770Z,1011.74
2023-03-21T01:39:29.778Z,1011.75
2023-03-21T01:40:29.745Z,1011.76
2023-03-21T01:41:42.114Z,1011.76
2023-03-21T01:42:29.729Z,1011.77
2023-03-21T01:43:29.710Z,1011.77
2023-03-21T01:44:29.733Z,1011.78
2023-03-21T01:45:29.711Z,1011.78
2023-03-21T01:46:32.331Z,1011.78
2023-03-21T01:47:29.673Z,1011.78
2023-03-21T01:48:29.657Z,1011.78
2023-03-21T01:49:29.638Z,1011.77
2023-03-21T01:50:29.668Z,1011.77
2023-03-21T01:51:29.622Z,1011.76
2023-03-21T01:52:37.080Z,1011.76
2023-03-21T01:53:29.623Z,1011.73
2023-03-21T01:54:29.594Z,1011.72
2023-03-21T01:55:29.582Z,1011.74
2023-03-21T01:56:29.665Z,1011.73
2023-03-21T01:57:35.325Z,1011.72
2023-03-21T01:58:29.556Z,1011.69
2023-03-21T01:59:29.536Z,1011.68
2023-03-21T02:00:29.610Z,1011.68
2023-03-21T02:01:29.556Z,1011.66
2023-03-21T02:02:29.516Z,1011.67
2023-03-21T02:03:36.171Z,1011.68
2023-03-21T02:04:29.541Z,1011.70
2023-03-21T02:05:29.488Z,1011.70
2023-03-21T02:06:29.502Z,1011.70
2023-03-21T02:07:29.463Z,1011.69
2023-03-21T02:08:38.851Z,1011.69
2023-03-21T02:09:29.462Z,1011.68
2023-03-21T02:10:29.441Z,1011.66
2023-03-21T02:11:29.436Z,1011.66
2023-03-21T02:12:29.412Z,1011.69
2023-03-21T02:13:29.394Z,1011.71
2023-03-21T02:14:29.764Z,1011.69
2023-03-21T02:15:29.397Z,1011.70
2023-03-21T02:16:29.394Z,1011.68
2023-03-21T02:17:29.343Z,1011.68
2023-03-21T02:18:29.404Z,1011.68
2023-03-21T02:19:33.080Z,1011.67
2023-03-21T02:20:29.374Z,1011.68
2023-03-21T02:21:29.301Z,1011.69
2023-03-21T02:22:29.350Z,1011.69
2023-03-21T02:23:29.289Z,1011.70
2023-03-21T02:24:29.277Z,1011.69
2023-03-21T02:25:29.277Z,1011.69
2023-03-21T02:26:40.714Z,1011.67
2023-03-21T02:27:29.256Z,1011.67
2023-03-21T02:28:29.253Z,1011.65
2023-03-21T02:29:29.245Z,1011.66
2023-03-21T02:30:33.572Z,1011.65
2023-03-21T02:31:29.242Z,1011.63
2023-03-21T02:32:37.452Z,1011.65
2023-03-21T02:33:29.187Z,1011.65
2023-03-21T02:34:29.179Z,1011.64
2023-03-21T02:35:29.171Z,1011.63
2023-03-21T02:36:29.177Z,1011.63
2023-03-21T02:37:37.721Z,1011.62
2023-03-21T02:38:29.134Z,1011.61
2023-03-21T02:39:29.125Z,1011.61
2023-03-21T02:40:29.127Z,1011.60
2023-03-21T02:41:35.113Z,1011.59
2023-03-21T02:42:29.105Z,1011.60
2023-03-21T02:43:29.076Z,1011.60
2023-03-21T02:44:29.099Z,1011.61
2023-03-21T02:45:29.077Z,1011.61
2023-03-21T02:46:39.928Z,1011.60
2023-03-21T02:47:29.042Z,1011.61
2023-03-21T02:48:38.147Z,1011.64
2023-03-21T02:49:29.020Z,1011.65
2023-03-21T02:50:29.030Z,1011.67
2023-03-21T02:51:28.997Z,1011.66
2023-03-21T02:52:38.745Z,1011.68
2023-03-21T02:53:28.979Z,1011.66
2023-03-21T02:54:45.294Z,1011.67
2023-03-21T02:55:28.964Z,1011.66
2023-03-21T02:56:28.947Z,1011.64
2023-03-21T02:57:40.076Z,1011.62
2023-03-21T02:58:28.929Z,1011.61
2023-03-21T02:59:28.942Z,1011.61
2023-03-21T03:00:28.914Z,1011.61
2023-03-21T03:01:28.900Z,1011.62
2023-03-21T03:02:28.911Z,1011.64
2023-03-21T03:03:34.337Z,1011.64
2023-03-21T03:04:28.918Z,1011.65
2023-03-21T03:05:28.863Z,1011.65
2023-03-21T03:06:28.878Z,1011.63
2023-03-21T03:07:28.858Z,1011.63
2023-03-21T03:08:38.553Z,1011.64
2023-03-21T03:09:28.815Z,1011.65
2023-03-21T03:10:28.800Z,1011.65
2023-03-21T03:11:28.804Z,1011.68
2023-03-21T03:12:28.799Z,1011.67
2023-03-21T03:13:28.756Z,1011.68
2023-03-21T03:14:44.332Z,1011.68
2023-03-21T03:15:28.876Z,1011.67
2023-03-21T03:16:28.738Z,1011.67
2023-03-21T03:17:28.723Z,1011.68
2023-03-21T03:18:28.738Z,1011.66
2023-03-21T03:19:29.233Z,1011.68
2023-03-21T03:20:28.730Z,1011.68
2023-03-21T03:21:28.717Z,1011.69
2023-03-21T03:22:28.670Z,1011.71
2023-03-21T03:23:28.666Z,1011.72
2023-03-21T03:24:28.654Z,1011.71
2023-03-21T03:25:41.499Z,1011.71
2023-03-21T03:26:28.632Z,1011.70
2023-03-21T03:27:28.613Z,1011.68
2023-03-21T03:28:28.606Z,1011.67
2023-03-21T03:29:28.599Z,1011.67
2023-03-21T03:30:35.535Z,1011.67
2023-03-21T03:31:28.589Z,1011.67
2023-03-21T03:32:28.559Z,1011.68
2023-03-21T03:33:28.555Z,1011.68
2023-03-21T03:34:28.532Z,1011.68
2023-03-21T03:35:28.541Z,1011.69
2023-03-21T03:36:32.359Z,1011.69
2023-03-21T03:37:28.513Z,1011.69
2023-03-21T03:38:28.490Z,1011.71
2023-03-21T03:39:28.485Z,1011.71
2023-03-21T03:40:28.498Z,1011.72
2023-03-21T03:41:30.124Z,1011.72
2023-03-21T03:42:29.190Z,1011.73
2023-03-21T03:43:28.449Z,1011.74
2023-03-21T03:44:28.476Z,1011.75
2023-03-21T03:45:28.430Z,1011.76
2023-03-21T03:46:28.421Z,1011.77
2023-03-21T03:47:33.794Z,1011.76
2023-03-21T03:48:28.468Z,1011.77
2023-03-21T03:49:28.384Z,1011.76
2023-03-21T03:50:28.408Z,1011.77
2023-03-21T03:51:28.373Z,1011.76
2023-03-21T03:52:28.346Z,1011.77
2023-03-21T03:53:28.349Z,1011.76
2023-03-21T03:54:28.324Z,1011.76
2023-03-21T03:55:28.351Z,1011.74
2023-03-21T03:56:28.323Z,1011.75
2023-03-21T03:57:28.328Z,1011.76
2023-03-21T03:58:43.029Z,1011.75
2023-03-21T03:59:28.284Z,1011.77
2023-03-21T04:00:28.275Z,1011.75
2023-03-21T04:01:28.300Z,1011.75
2023-03-21T04:02:28.299Z,1011.76
2023-03-21T04:03:32.343Z,1011.75
2023-03-21T04:04:28.262Z,1011.74
2023-03-21T04:05:28.228Z,1011.72
2023-03-21T04:06:28.217Z,1011.71
2023-03-21T04:07:28.190Z,1011.71
2023-03-21T04:08:28.177Z,1011.71
2023-03-21T04:09:42.665Z,1011.70
2023-03-21T04:10:28.191Z,1011.71
2023-03-21T04:11:28.156Z,1011.70
2023-03-21T04:12:28.149Z,1011.68
2023-03-21T04:13:28.135Z,1011.68
2023-03-21T04:14:35.545Z,1011.69
2023-03-21T04:15:28.153Z,1011.68
2023-03-21T04:16:28.147Z,1011.69
2023-03-21T04:17:28.092Z,1011.68
2023-03-21T04:18:28.083Z,1011.68
2023-03-21T04:19:28.082Z,1011.67
2023-03-21T04:20:36.672Z,1011.67
2023-03-21T04:21:28.737Z,1011.67
2023-03-21T04:22:28.034Z,1011.68
2023-03-21T04:23:28.026Z,1011.68
2023-03-21T04:24:28.023Z,1011.69
2023-03-21T04:25:33.811Z,1011.69
2023-03-21T04:26:27.998Z,1011.69
2023-03-21T04:27:28.003Z,1011.69
2023-03-21T04:28:27.980Z,1011.69
2023-03-21T04:29:27.974Z,1011.68
2023-03-21T04:30:28.894Z,1011.67
2023-03-21T04:31:27.974Z,1011.66
2023-03-21T04:32:27.924Z,1011.66
2023-03-21T04:33:27.990Z,1011.65
2023-03-21T04:34:27.946Z,1011.65
2023-03-21T04:35:27.898Z,1011.64
2023-03-21T04:36:27.943Z,1011.64
2023-03-21T04:37:27.921Z,1011.65
2023-03-21T04:38:27.817Z,1011.65
2023-03-21T04:39:27.869Z,1011.66
2023-03-21T04:40:27.846Z,1011.66
2023-03-21T04:41:27.818Z,1011.66
2023-03-21T04:42:27.821Z,1011.66
2023-03-21T04:43:27.773Z,1011.66
2023-03-21T04:44:27.747Z,1011.67
2023-03-21T04:45:27.815Z,1011.68
2023-03-21T04:46:27.756Z,1011.66
2023-03-21T04:47:27.721Z,1011.67
2023-03-21T04:48:27.712Z,1011.68
2023-03-21T04:49:27.722Z,1011.68
2023-03-21T04:50:27.700Z,1011.69
2023-03-21T04:51:27.700Z,1011.70
2023-03-21T04:52:27.671Z,1011.69
2023-03-21T04:53:27.659Z,1011.70
2023-03-21T04:54:27.673Z,1011.70
2023-03-21T04:55:27.651Z,1011.70
2023-03-21T04:56:27.632Z,1011.70
2023-03-21T04:57:27.618Z,1011.70
2023-03-21T04:58:27.637Z,1011.71
2023-03-21T04:59:27.620Z,1011.71
2023-03-21T05:00:27.594Z,1011.71
2023-03-21T05:01:27.609Z,1011.71
2023-03-21T05:02:27.559Z,1011.72
2023-03-21T05:03:27.554Z,1011.72
2023-03-21T05:04:27.709Z,1011.73
2023-03-21T05:05:27.538Z,1011.73
2023-03-21T05:06:27.521Z,1011.73
2023-03-21T05:07:27.519Z,1011.73
2023-03-21T05:08:27.516Z,1011.73
2023-03-21T05:09:27.497Z,1011.74
2023-03-21T05:10:27.471Z,1011.74
2023-03-21T05:11:27.486Z,1011.73
2023-03-21T05:12:27.473Z,1011.73
2023-03-21T05:13:27.444Z,1011.72
2023-03-21T05:14:27.455Z,1011.72
2023-03-21T05:15:27.431Z,1011.71
2023-03-21T05:16:27.455Z,1011.70
2023-03-21T05:17:27.403Z,1011.69
2023-03-21T05:18:27.385Z,1011.68
2023-03-21T05:19:27.397Z,1011.67
2023-03-21T05:20:27.420Z,1011.67
2023-03-21T05:21:27.370Z,1011.66
2023-03-21T05:22:27.342Z,1011.65
2023-03-21T05:23:27.338Z,1011.65
2023-03-21T05:24:27.322Z,1011.64
2023-03-21T05:25:27.326Z,1011.64
2023-03-21T05:26:27.315Z,1011.63
2023-03-21T05:27:27.302Z,1011.63
2023-03-21T05:28:27.279Z,1011.62
2023-03-21T05:29:27.272Z,1011.64
2023-03-21T05:30:27.275Z,1011.65
2023-03-21T05:31:27.273Z,1011.66
2023-03-21T05:32:27.235Z,1011.67
2023-03-21T05:33:27.228Z,1011.67
2023-03-21T05:34:27.256Z,1011.67
2023-03-21T05:35:27.217Z,1011.66
2023-03-21T05:36:27.225Z,1011.66
2023-03-21T05:37:27.192Z,1011.66
2023-03-21T05:38:27.188Z,1011.66
2023-03-21T05:39:27.173Z,1011.66
2023-03-21T05:40:27.154Z,1011.66
2023-03-21T05:41:27.165Z,1011.66
2023-03-21T05:42:27.134Z,1011.65
2023-03-21T05:43:27.126Z,1011.64
2023-03-21T05:44:27.107Z,1011.64
2023-03-21T05:45:27.154Z,1011.65
2023-03-21T05:46:27.194Z,1011.65
2023-03-21T05:47:27.085Z,1011.66
2023-03-21T05:48:27.068Z,1011.69
2023-03-21T05:49:27.092Z,1011.70
2023-03-21T05:50:27.068Z,1011.69
2023-03-21T05:51:27.065Z,1011.68
2023-03-21T05:52:27.038Z,1011.68
2023-03-21T05:53:27.022Z,1011.69
2023-03-21T05:54:27.042Z,1011.69
2023-03-21T05:55:27.001Z,1011.70
2023-03-21T05:56:27.012Z,1011.69
2023-03-21T05:57:26.996Z,1011.69
2023-03-21T05:58:26.964Z,1011.70
2023-03-21T05:59:26.956Z,1011.70
2023-03-21T06:00:28.304Z,1011.69
2023-03-21T06:01:26.958Z,1011.70
2023-03-21T06:02:26.947Z,1011.68
2023-03-21T06:03:26.958Z,1011.69
2023-03-21T06:04:26.912Z,1011.70
2023-03-21T06:05:26.903Z,1011.70
2023-03-21T06:06:26.891Z,1011.70
2023-03-21T06:07:26.886Z,1011.70
2023-03-21T06:08:26.856Z,1011.70
2023-03-21T06:09:26.853Z,1011.72
2023-03-21T06:10:26.842Z,1011.73
2023-03-21T06:11:26.846Z,1011.73
2023-03-21T06:12:26.826Z,1011.75
2023-03-21T06:13:32.860Z,1011.75
2023-03-21T06:14:26.805Z,1011.76
2023-03-21T06:15:26.802Z,1011.78
2023-03-21T06:16:27.644Z,1011.78
2023-03-21T06:17:26.791Z,1011.79
2023-03-21T06:18:26.758Z,1011.80
2023-03-21T06:19:26.755Z,1011.81
2023-03-21T06:20:26.751Z,1011.82
2023-03-21T06:21:26.998Z,1011.81
2023-03-21T06:22:26.710Z,1011.82
2023-03-21T06:23:26.747Z,1011.81
2023-03-21T06:24:26.692Z,1011.82
2023-03-21T06:25:27.076Z,1011.82
2023-03-21T06:26:26.700Z,1011.81
2023-03-21T06:27:26.691Z,1011.80
2023-03-21T06:28:26.662Z,1011.81
2023-03-21T06:29:26.651Z,1011.80
2023-03-21T06:30:26.630Z,1011.80
2023-03-21T06:31:26.758Z,1011.79
2023-03-21T06:32:26.650Z,1011.79
2023-03-21T06:33:26.632Z,1011.80
2023-03-21T06:34:26.793Z,1011.79
2023-03-21T06:35:26.618Z,1011.80
2023-03-21T06:36:26.625Z,1011.80
2023-03-21T06:37:26.559Z,1011.81
2023-03-21T06:38:26.579Z,1011.82
2023-03-21T06:39:26.557Z,1011.83
2023-03-21T06:40:26.534Z,1011.85
2023-03-21T06:41:26.535Z,1011.85
2023-03-21T06:42:26.524Z,1011.86
2023-03-21T06:43:26.532Z,1011.86
2023-03-21T06:44:26.494Z,1011.87
2023-03-21T06:45:26.482Z,1011.87
2023-03-21T06:46:26.478Z,1011.87
2023-03-21T06:47:26.475Z,1011.86
2023-03-21T06:48:26.511Z,1011.85
2023-03-21T06:49:26.445Z,1011.87
2023-03-21T06:50:26.419Z,1011.88
2023-03-21T06:51:26.408Z,1011.89
2023-03-21T06:52:26.573Z,1011.90
2023-03-21T06:53:26.402Z,1011.91
2023-03-21T06:54:26.366Z,1011.91
2023-03-21T06:55:26.366Z,1011.92
2023-03-21T06:56:26.358Z,1011.93
2023-03-21T06:57:26.398Z,1011.94
2023-03-21T06:58:26.342Z,1011.94
2023-03-21T06:59:26.593Z,1011.95
2023-03-21T07:00:26.351Z,1011.95
2023-03-21T07:01:26.338Z,1011.95
2023-03-21T07:02:26.437Z,1011.94
2023-03-21T07:03:26.320Z,1011.93
2023-03-21T07:04:26.327Z,1011.92
2023-03-21T07:05:26.345Z,1011.92
2023-03-21T07:06:26.348Z,1011.93
2023-03-21T07:07:26.280Z,1011.93
2023-03-21T07:08:26.282Z,1011.94
2023-03-21T07:09:26.435Z,1011.94
2023-03-21T07:10:26.218Z,1011.94
2023-03-21T07:11:27.552Z,1011.95
2023-03-21T07:12:26.564Z,1011.94
2023-03-21T07:13:26.223Z,1011.94
2023-03-21T07:14:26.186Z,1011.95
2023-03-21T07:15:26.244Z,1011.95
2023-03-21T07:16:26.360Z,1011.96
2023-03-21T07:17:26.186Z,1011.97
2023-03-21T07:18:26.169Z,1011.97
2023-03-21T07:19:26.173Z,1011.98
2023-03-21T07:20:26.191Z,1011.98
2023-03-21T07:21:26.197Z,1011.96
2023-03-21T07:22:26.099Z,1011.98
2023-03-21T07:23:26.108Z,1011.99
2023-03-21T07:24:26.243Z,1011.97
2023-03-21T07:25:30.340Z,1011.97
2023-03-21T07:26:28.603Z,1011.96
2023-03-21T07:27:28.004Z,1011.97
2023-03-21T07:28:27.025Z,1011.98
2023-03-21T07:29:28.911Z,1011.97
2023-03-21T07:30:26.058Z,1011.98
2023-03-21T07:31:26.174Z,1011.99
2023-03-21T07:32:28.488Z,1012.00
2023-03-21T07:33:28.653Z,1012.00
2023-03-21T07:34:26.384Z,1012.00
2023-03-21T07:35:26.035Z,1012.01
2023-03-21T07:36:25.991Z,1012.02
2023-03-21T07:37:25.931Z,1012.02
2023-03-21T07:38:25.912Z,1012.03
2023-03-21T07:39:25.910Z,1012.03
2023-03-21T07:40:25.892Z,1012.05
2023-03-21T07:41:25.922Z,1012.05
2023-03-21T07:42:25.890Z,1012.05
2023-03-21T07:43:25.881Z,1012.06
2023-03-21T07:44:25.857Z,1012.05
2023-03-21T07:45:25.847Z,1012.05
2023-03-21T07:46:25.868Z,1012.05
2023-03-21T07:47:25.821Z,1012.05
2023-03-21T07:48:25.825Z,1012.05
2023-03-21T07:49:25.797Z,1012.05
2023-03-21T07:50:25.839Z,1012.06
2023-03-21T07:51:25.800Z,1012.06
2023-03-21T07:52:25.773Z,1012.06
2023-03-21T07:53:25.761Z,1012.04
2023-03-21T07:54:25.763Z,1012.04
2023-03-21T07:55:25.729Z,1012.04
2023-03-21T07:56:25.768Z,1012.04
2023-03-21T07:57:25.705Z,1012.03
2023-03-21T07:58:25.710Z,1012.03
2023-03-21T07:59:25.738Z,1012.02
2023-03-21T08:00:25.694Z,1012.01
2023-03-21T08:01:25.692Z,1012.01
2023-03-21T08:02:25.789Z,1012.00
2023-03-21T08:03:25.717Z,1012.01
2023-03-21T08:04:25.669Z,1012.01
2023-03-21T08:05:25.641Z,1012.00
2023-03-21T08:06:25.626Z,1012.00
2023-03-21T08:07:25.663Z,1012.00
2023-03-21T08:08:25.605Z,1011.99
2023-03-21T08:09:25.589Z,1011.99
2023-03-21T08:10:25.679Z,1011.98
2023-03-21T08:11:25.561Z,1011.98
2023-03-21T08:12:25.662Z,1011.97
2023-03-21T08:13:25.540Z,1011.97
2023-03-21T08:14:25.668Z,1011.97
2023-03-21T08:15:25.521Z,1011.97
2023-03-21T08:16:25.612Z,1011.97
2023-03-21T08:17:25.577Z,1011.96
2023-03-21T08:18:25.534Z,1011.97
2023-03-21T08:19:25.482Z,1011.97
2023-03-21T08:20:25.486Z,1011.97
2023-03-21T08:21:25.482Z,1011.97
2023-03-21T08:22:25.502Z,1011.97
2023-03-21T08:23:25.437Z,1011.98
2023-03-21T08:24:25.732Z,1011.98
2023-03-21T08:25:25.421Z,1011.97
2023-03-21T08:26:25.437Z,1011.97
2023-03-21T08:27:25.426Z,1011.99
2023-03-21T08:28:25.420Z,1011.98
2023-03-21T08:29:26.800Z,1011.98
2023-03-21T08:30:25.408Z,1011.99
2023-03-21T08:31:25.425Z,1011.99
2023-03-21T08:32:25.388Z,1011.98
2023-03-21T08:33:25.364Z,1012.00
2023-03-21T08:34:25.329Z,1012.01
2023-03-21T08:35:25.343Z,1012.00
2023-03-21T08:36:25.425Z,1012.00
2023-03-21T08:37:25.321Z,1012.01
2023-03-21T08:38:25.279Z,1012.00
2023-03-21T08:39:25.358Z,1012.01
2023-03-21T08:40:25.302Z,1012.01
2023-03-21T08:41:25.242Z,1012.00
2023-03-21T08:42:25.294Z,1012.00
2023-03-21T08:43:25.238Z,1012.01
2023-03-21T08:44:25.242Z,1012.01
2023-03-21T08:45:25.203Z,1012.02
2023-03-21T08:46:25.337Z,1012.02
2023-03-21T08:47:25.240Z,1012.02
2023-03-21T08:48:25.204Z,1012.02
2023-03-21T08:49:25.170Z,1012.02
2023-03-21T08:50:25.248Z,1011.99
2023-03-21T08:51:25.146Z,1011.99
2023-03-21T08:52:25.146Z,1011.99
2023-03-21T08:53:25.122Z,1011.99
2023-03-21T08:54:25.119Z,1011.99
2023-03-21T08:55:25.118Z,1011.98
2023-03-21T08:56:25.141Z,1011.98
2023-03-21T08:57:25.218Z,1011.98
2023-03-21T08:58:25.215Z,1011.96
2023-03-21T08:59:25.077Z,1011.97
2023-03-21T09:00:25.102Z,1011.97
2023-03-21T09:01:25.084Z,1011.98
2023-03-21T09:02:25.113Z,1011.98
2023-03-21T09:03:25.418Z,1011.98
2023-03-21T09:04:25.055Z,1011.99
2023-03-21T09:05:26.025Z,1012.01
2023-03-21T09:06:25.079Z,1012.02
2023-03-21T09:07:24.980Z,1012.03
2023-03-21T09:08:25.159Z,1012.02
2023-03-21T09:09:25.009Z,1012.03
2023-03-21T09:10:24.975Z,1012.03
2023-03-21T09:11:25.009Z,1012.03
2023-03-21T09:12:24.952Z,1012.03
2023-03-21T09:13:24.944Z,1012.04
2023-03-21T09:14:28.796Z,1012.04
2023-03-21T09:15:25.100Z,1012.04
2023-03-21T09:16:24.908Z,1012.05
2023-03-21T09:17:24.884Z,1012.05
2023-03-21T09:18:24.860Z,1012.06
2023-03-21T09:19:24.849Z,1012.03
2023-03-21T09:20:24.892Z,1012.05
2023-03-21T09:21:24.834Z,1012.04
2023-03-21T09:22:24.871Z,1012.06
2023-03-21T09:23:24.799Z,1012.06
2023-03-21T09:24:24.801Z,1012.05
2023-03-21T09:25:24.779Z,1012.05
2023-03-21T09:26:24.770Z,1012.05
2023-03-21T09:27:24.790Z,1012.01
2023-03-21T09:28:24.753Z,1012.02
2023-03-21T09:29:24.728Z,1012.02
2023-03-21T09:30:26.353Z,1012.02
2023-03-21T09:31:24.810Z,1012.01
2023-03-21T09:32:24.755Z,1012.00
2023-03-21T09:33:24.710Z,1012.01
2023-03-21T09:34:24.684Z,1012.01
2023-03-21T09:35:24.700Z,1012.00
2023-03-21T09:36:24.765Z,1011.98
2023-03-21T09:37:24.662Z,1011.98
2023-03-21T09:38:24.644Z,1011.99
2023-03-21T09:39:24.642Z,1011.99
2023-03-21T09:40:24.724Z,1012.00
2023-03-21T09:41:24.868Z,1011.99
2023-03-21T09:42:24.628Z,1011.99
2023-03-21T09:43:24.603Z,1011.97
2023-03-21T09:44:24.653Z,1011.98
2023-03-21T09:45:24.595Z,1011.97
2023-03-21T09:46:24.694Z,1011.96
2023-03-21T09:47:24.563Z,1011.96
2023-03-21T09:48:24.641Z,1011.95
2023-03-21T09:49:26.599Z,1011.95
2023-03-21T09:50:24.623Z,1011.94
2023-03-21T09:51:24.595Z,1011.94
2023-03-21T09:52:24.873Z,1011.93
2023-03-21T09:53:24.520Z,1011.92
2023-03-21T09:54:24.506Z,1011.91
2023-03-21T09:55:24.588Z,1011.91
2023-03-21T09:56:24.482Z,1011.92
2023-03-21T09:57:24.477Z,1011.91
2023-03-21T09:58:24.498Z,1011.92
2023-03-21T09:59:24.441Z,1011.92
2023-03-21T10:00:24.431Z,1011.92
2023-03-21T10:01:24.423Z,1011.90
2023-03-21T10:02:24.425Z,1011.91
2023-03-21T10:03:24.431Z,1011.90
2023-03-21T10:04:24.432Z,1011.90
2023-03-21T10:05:24.376Z,1011.89
2023-03-21T10:06:24.390Z,1011.89
2023-03-21T10:07:24.386Z,1011.88
2023-03-21T10:08:24.417Z,1011.86
2023-03-21T10:09:24.520Z,1011.85
2023-03-21T10:10:24.309Z,1011.84
2023-03-21T10:11:24.312Z,1011.83
2023-03-21T10:12:24.529Z,1011.82
2023-03-21T10:13:24.281Z,1011.82
2023-03-21T10:14:24.284Z,1011.80
2023-03-21T10:15:24.255Z,1011.77
2023-03-21T10:16:24.317Z,1011.77
2023-03-21T10:17:24.266Z,1011.75
2023-03-21T10:18:24.223Z,1011.73
2023-03-21T10:19:24.234Z,1011.72
2023-03-21T10:20:24.216Z,1011.71
2023-03-21T10:21:51.270Z,1011.71
2023-03-21T10:22:24.222Z,1011.71
2023-03-21T10:23:24.156Z,1011.71
2023-03-21T10:24:24.205Z,1011.72
2023-03-21T10:25:24.137Z,1011.68
2023-03-21T10:26:24.158Z,1011.69
2023-03-21T10:27:24.123Z,1011.69
2023-03-21T10:28:24.129Z,1011.68
2023-03-21T10:29:24.146Z,1011.68
2023-03-21T10:30:24.120Z,1011.68
2023-03-21T10:31:24.182Z,1011.68
2023-03-21T10:32:24.108Z,1011.67
2023-03-21T10:33:24.119Z,1011.67
2023-03-21T10:34:24.069Z,1011.66
2023-03-21T10:35:24.037Z,1011.66
2023-03-21T10:36:24.045Z,1011.65
2023-03-21T10:37:24.036Z,1011.66
2023-03-21T10:38:23.998Z,1011.67
2023-03-21T10:39:24.004Z,1011.66
2023-03-21T10:40:23.999Z,1011.64
2023-03-21T10:41:23.968Z,1011.62
2023-03-21T10:42:23.969Z,1011.60
2023-03-21T10:43:23.949Z,1011.58
2023-03-21T10:44:24.003Z,1011.56
2023-03-21T10:45:23.946Z,1011.54
2023-03-21T10:46:24.218Z,1011.53
2023-03-21T10:47:24.267Z,1011.52
2023-03-21T10:48:24.021Z,1011.50
2023-03-21T10:49:23.884Z,1011.49
2023-03-21T10:50:23.962Z,1011.49
2023-03-21T10:51:23.867Z,1011.47
2023-03-21T10:52:23.863Z,1011.47
2023-03-21T10:53:23.872Z,1011.47
2023-03-21T10:54:23.874Z,1011.45
2023-03-21T10:55:23.831Z,1011.45
2023-03-21T10:56:23.826Z,1011.44
2023-03-21T10:57:23.829Z,1011.46
2023-03-21T10:58:23.818Z,1011.46
2023-03-21T10:59:23.822Z,1011.48
2023-03-21T11:00:23.778Z,1011.46
2023-03-21T11:01:23.812Z,1011.46
2023-03-21T11:02:23.800Z,1011.47
2023-03-21T11:03:23.751Z,1011.45
2023-03-21T11:04:23.760Z,1011.45
2023-03-21T11:05:23.720Z,1011.45
2023-03-21T11:06:23.715Z,1011.44
2023-03-21T11:07:23.699Z,1011.44
2023-03-21T11:08:23.812Z,1011.45
2023-03-21T11:09:23.679Z,1011.44
2023-03-21T11:10:28.830Z,1011.45
2023-03-21T11:11:23.664Z,1011.45
2023-03-21T11:12:23.651Z,1011.45
2023-03-21T11:13:23.629Z,1011.44
2023-03-21T11:14:23.627Z,1011.45
2023-03-21T11:15:23.651Z,1011.40
2023-03-21T11:16:23.663Z,1011.42
2023-03-21T11:17:23.587Z,1011.42
2023-03-21T11:18:23.654Z,1011.42
2023-03-21T11:19:23.592Z,1011.42
2023-03-21T11:20:23.611Z,1011.41
2023-03-21T11:21:23.547Z,1011.40
2023-03-21T11:22:23.584Z,1011.39
2023-03-21T11:23:23.564Z,1011.38
2023-03-21T11:24:23.567Z,1011.37
2023-03-21T11:25:23.525Z,1011.36
2023-03-21T11:26:23.528Z,1011.36
2023-03-21T11:27:23.491Z,1011.33
2023-03-21T11:28:23.490Z,1011.31
2023-03-21T11:29:23.505Z,1011.31
2023-03-21T11:30:23.468Z,1011.29
2023-03-21T11:31:23.445Z,1011.27
2023-03-21T11:32:23.448Z,1011.26
2023-03-21T11:33:23.465Z,1011.25
2023-03-21T11:34:23.464Z,1011.23
2023-03-21T11:35:23.404Z,1011.22
2023-03-21T11:36:23.464Z,1011.21
2023-03-21T11:37:23.418Z,1011.21
2023-03-21T11:38:23.383Z,1011.21
2023-03-21T11:39:23.367Z,1011.17
2023-03-21T11:40:23.363Z,1011.18
2023-03-21T11:41:23.426Z,1011.17
2023-03-21T11:42:23.377Z,1011.17
2023-03-21T11:43:23.355Z,1011.17
2023-03-21T11:44:23.302Z,1011.16
2023-03-21T11:45:23.314Z,1011.15
2023-03-21T11:46:23.347Z,1011.12
2023-03-21T11:47:23.268Z,1011.12
2023-03-21T11:48:23.328Z,1011.11
2023-03-21T11:49:23.428Z,1011.10
2023-03-21T11:50:23.239Z,1011.10
2023-03-21T11:51:23.240Z,1011.07
2023-03-21T11:52:23.222Z,1011.06
2023-03-21T11:53:23.232Z,1011.08
2023-03-21T11:54:23.196Z,1011.07
2023-03-21T11:55:23.193Z,1011.07
2023-03-21T11:56:23.200Z,1011.06
2023-03-21T11:57:24.323Z,1011.06
2023-03-21T11:58:23.256Z,1011.06
2023-03-21T11:59:23.170Z,1011.05
2023-03-21T12:00:23.145Z,1011.04
2023-03-21T12:01:23.114Z,1011.02
2023-03-21T12:02:23.180Z,1011.01
2023-03-21T12:03:23.146Z,1010.99
2023-03-21T12:04:23.170Z,1010.99
2023-03-21T12:05:23.081Z,1010.97
2023-03-21T12:06:23.111Z,1010.95